Time;durP1;ratioP1;P1;durP2;ratioP2;P2;SDS_P1;SDS_P2;PMS_P1;PMS_P2;Temp;Humidity;BMP_temperature;BMP_pressure;BME280_temperature;BME280_humidity;BME280_pressure;Samples;Min_cycle;Max_cycle;Signal;HPM_P1;HPM_P2
2023/05/10 00:00:32;;;;;;;157.85;53.08;;;;;;;10.68;100.00;100882.75;5049996;28;20502;-47
2023/05/10 00:02:58;;;;;;;154.05;52.70;;;;;;;10.68;100.00;100879.22;5050251;28;20484;-47
2023/05/10 00:05:23;;;;;;;152.00;52.75;;;;;;;10.66;100.00;100884.75;5053472;28;20027;-49
2023/05/10 00:07:48;;;;;;;149.10;52.40;;;;;;;10.62;100.00;100880.78;5060579;28;20025;-46
2023/05/10 00:10:14;;;;;;;158.63;52.30;;;;;;;10.62;100.00;100883.47;5048218;28;20045;-45
2023/05/10 00:12:39;;;;;;;155.00;54.65;;;;;;;10.60;100.00;100882.81;5049099;28;20124;-45
2023/05/10 00:15:05;;;;;;;161.13;52.92;;;;;;;10.57;100.00;100875.09;5065713;28;20098;-44
2023/05/10 00:17:30;;;;;;;153.38;52.75;;;;;;;10.55;100.00;100872.56;5048946;28;20032;-46
2023/05/10 00:19:56;;;;;;;151.18;49.85;;;;;;;10.48;100.00;100871.66;5048773;28;20025;-49
2023/05/10 00:22:21;;;;;;;156.45;52.35;;;;;;;10.47;100.00;100869.97;5049812;28;20040;-46
2023/05/10 00:24:47;;;;;;;151.52;51.33;;;;;;;10.44;100.00;100873.00;5064550;28;20036;-46
2023/05/10 00:27:12;;;;;;;159.00;53.15;;;;;;;10.43;100.00;100870.53;5063276;28;20542;-43
2023/05/10 00:29:37;;;;;;;152.23;49.67;;;;;;;10.39;100.00;100875.41;5050493;28;20029;-49
2023/05/10 00:32:03;;;;;;;144.80;49.10;;;;;;;10.38;100.00;100873.75;5049119;28;20036;-47
2023/05/10 00:34:29;;;;;;;155.70;50.70;;;;;;;10.38;100.00;100867.53;5050238;28;20462;-47
2023/05/10 00:36:56;;;;;;;142.25;48.58;;;;;;;10.35;100.00;100868.72;5050119;28;20104;-44
2023/05/10 00:39:21;;;;;;;144.32;49.67;;;;;;;10.33;100.00;100868.06;5058098;28;20032;-46
2023/05/10 00:41:46;;;;;;;134.70;48.53;;;;;;;10.30;100.00;100871.94;5067714;28;20032;-50
2023/05/10 00:44:13;;;;;;;138.55;48.08;;;;;;;10.28;100.00;100875.84;5069790;28;20107;-44
2023/05/10 00:46:38;;;;;;;127.82;48.20;;;;;;;10.27;100.00;100880.38;5069165;28;20029;-46
2023/05/10 00:49:04;;;;;;;138.30;47.55;;;;;;;10.27;100.00;100876.84;5063424;28;20108;-51
2023/05/10 00:51:31;;;;;;;146.23;51.22;;;;;;;10.24;100.00;100877.16;5048595;28;20032;-45
2023/05/10 00:53:58;;;;;;;135.05;49.08;;;;;;;10.24;100.00;100887.91;5049794;28;20076;-45
2023/05/10 00:56:24;;;;;;;141.55;49.25;;;;;;;10.26;100.00;100892.09;5049914;28;20486;-48
2023/05/10 00:58:49;;;;;;;140.93;51.97;;;;;;;10.25;100.00;100889.63;5051869;28;20040;-46
2023/05/10 01:01:15;;;;;;;148.05;52.90;;;;;;;10.28;100.00;100900.88;5069430;28;20021;-49
2023/05/10 01:03:41;;;;;;;149.88;53.67;;;;;;;10.32;100.00;100899.50;5061559;28;20045;-46
2023/05/10 01:06:07;;;;;;;158.00;56.70;;;;;;;10.37;100.00;100898.13;5048382;28;20087;-45
2023/05/10 01:08:32;;;;;;;166.30;57.45;;;;;;;10.43;100.00;100898.25;5056193;28;20040;-47
2023/05/10 01:10:58;;;;;;;161.68;55.55;;;;;;;10.50;100.00;100901.06;5047939;28;20344;-50
2023/05/10 01:13:44;;;;;;;182.93;59.00;;;;;;;10.55;100.00;100902.19;5049310;28;20306;-46
2023/05/10 01:16:10;;;;;;;207.00;63.92;;;;;;;10.60;100.00;100903.50;5048244;28;20490;-47
2023/05/10 01:18:43;;;;;;;212.52;67.25;;;;;;;10.62;100.00;100905.00;5059814;28;20032;-45
2023/05/10 01:21:34;;;;;;;225.18;65.18;;;;;;;10.64;100.00;100900.28;5049800;28;20063;-47
2023/05/10 01:24:34;;;;;;;216.88;62.67;;;;;;;10.64;100.00;100918.28;5072115;28;20044;-48
2023/05/10 01:27:17;;;;;;;213.75;62.97;;;;;;;10.62;100.00;100921.16;5062922;28;20028;-48
2023/05/10 01:29:45;;;;;;;218.20;65.28;;;;;;;10.66;100.00;100927.00;5054039;28;20025;-46
2023/05/10 01:32:31;;;;;;;217.77;68.07;;;;;;;10.68;100.00;100927.66;5073198;28;20052;-47
2023/05/10 01:35:03;;;;;;;204.50;63.70;;;;;;;10.75;100.00;100921.38;5072433;28;20040;-45
2023/05/10 01:37:37;;;;;;;219.55;68.47;;;;;;;10.81;100.00;100927.06;5051407;28;20465;-45
2023/05/10 01:40:35;;;;;;;214.90;68.00;;;;;;;10.87;100.00;100931.72;5051441;28;20087;-45
2023/05/10 01:43:02;;;;;;;214.35;67.35;;;;;;;10.91;100.00;100933.84;5052303;28;20045;-46
2023/05/10 01:45:40;;;;;;;202.15;64.80;;;;;;;10.92;100.00;100938.22;5051994;28;20029;-48
2023/05/10 01:48:10;;;;;;;220.13;67.00;;;;;;;10.93;100.00;100936.38;5051262;28;20025;-45
2023/05/10 01:50:38;;;;;;;200.57;64.40;;;;;;;10.94;100.00;100940.75;5069770;28;20101;-48
2023/05/10 01:53:07;;;;;;;203.95;66.93;;;;;;;10.95;100.00;100940.56;5071423;28;20020;-47
2023/05/10 01:55:35;;;;;;;197.43;63.15;;;;;;;10.99;100.00;100946.41;5072672;28;20021;-45
2023/05/10 01:58:07;;;;;;;201.43;63.65;;;;;;;11.02;100.00;100951.44;5071772;28;20078;-43
2023/05/10 02:00:34;;;;;;;201.48;63.38;;;;;;;11.03;100.00;100950.41;5052525;28;20122;-45
2023/05/10 02:03:03;;;;;;;184.50;63.30;;;;;;;11.05;100.00;100950.25;5051676;28;20040;-46
2023/05/10 02:05:29;;;;;;;202.07;64.25;;;;;;;11.05;100.00;100948.38;5052715;28;20032;-44
2023/05/10 02:07:56;;;;;;;197.02;66.32;;;;;;;11.05;100.00;100945.69;5063479;28;20087;-47
2023/05/10 02:10:22;;;;;;;199.15;64.95;;;;;;;11.03;100.00;100952.28;5054218;28;20104;-48
2023/05/10 02:12:48;;;;;;;211.55;66.45;;;;;;;11.07;100.00;100950.91;5072459;28;20125;-45
2023/05/10 02:15:18;;;;;;;194.02;63.45;;;;;;;11.10;100.00;100947.84;5071478;28;20047;-47
2023/05/10 02:17:46;;;;;;;206.48;65.40;;;;;;;11.13;100.00;100952.84;5070249;28;20094;-46
2023/05/10 02:20:11;;;;;;;206.60;65.63;;;;;;;11.15;100.00;100959.72;5051320;28;20072;-45
2023/05/10 02:22:37;;;;;;;228.82;70.65;;;;;;;11.20;100.00;100960.03;5052349;28;20060;-46
2023/05/10 02:25:03;;;;;;;223.38;70.28;;;;;;;11.23;100.00;100963.38;5051500;28;20036;-47
2023/05/10 02:27:29;;;;;;;246.02;75.07;;;;;;;11.26;100.00;100957.63;5056864;28;20097;-46
2023/05/10 02:29:55;;;;;;;239.95;76.80;;;;;;;11.29;100.00;100954.53;5068382;28;20109;-46
2023/05/10 02:32:21;;;;;;;240.40;77.13;;;;;;;11.32;100.00;100962.25;5071073;28;20044;-46
2023/05/10 02:34:51;;;;;;;247.55;80.32;;;;;;;11.33;100.00;100958.56;5037223;28;20325;-49
2023/05/10 02:37:21;;;;;;;244.38;77.35;;;;;;;11.33;100.00;100963.94;5055000;28;20601;-50
2023/05/10 02:39:47;;;;;;;243.38;80.80;;;;;;;11.34;100.00;100966.44;5069950;28;20126;-48
2023/05/10 02:42:16;;;;;;;252.18;83.75;;;;;;;11.37;100.00;100959.84;5070429;28;20029;-46
2023/05/10 02:44:43;;;;;;;215.07;70.45;;;;;;;11.38;100.00;100967.75;5069229;28;20029;-49
2023/05/10 02:47:08;;;;;;;230.63;78.68;;;;;;;11.40;100.00;100972.94;5069908;28;20424;-47
2023/05/10 02:49:34;;;;;;;217.93;77.30;;;;;;;11.40;100.00;100970.25;5070168;28;20032;-48
2023/05/10 02:52:02;;;;;;;193.90;69.38;;;;;;;11.44;100.00;100971.56;5071184;28;20479;-48
2023/05/10 02:54:32;;;;;;;212.05;74.53;;;;;;;11.43;100.00;100969.91;5069553;28;20027;-49
2023/05/10 02:57:01;;;;;;;197.82;75.47;;;;;;;11.42;100.00;100968.22;5035429;28;20025;-44
2023/05/10 02:59:27;;;;;;;190.57;67.18;;;;;;;11.44;100.00;100966.19;5066370;28;20074;-46
2023/05/10 03:01:52;;;;;;;201.75;78.20;;;;;;;11.46;100.00;100964.16;5070958;28;20056;-47
2023/05/10 03:04:17;;;;;;;205.05;77.18;;;;;;;11.44;100.00;100960.78;5063107;28;20032;-47
2023/05/10 03:06:43;;;;;;;212.65;81.43;;;;;;;11.45;100.00;100962.47;5051719;28;20033;-46
2023/05/10 03:09:10;;;;;;;188.43;70.95;;;;;;;11.46;100.00;100958.75;5051791;28;20044;-44
2023/05/10 03:11:55;;;;;;;159.32;58.17;;;;;;;11.43;100.00;100959.13;5071057;28;20119;-45
2023/05/10 03:14:35;;;;;;;188.68;73.38;;;;;;;11.40;100.00;100967.56;5050791;28;20075;-45
2023/05/10 03:17:14;;;;;;;203.20;78.72;;;;;;;11.39;100.00;100973.97;5051210;28;20025;-46
2023/05/10 03:19:56;;;;;;;212.98;80.45;;;;;;;11.39;100.00;100971.28;5050345;28;20036;-45
2023/05/10 03:22:29;;;;;;;209.93;78.15;;;;;;;11.40;100.00;100973.81;5051490;28;20029;-46
2023/05/10 03:24:56;;;;;;;193.52;72.00;;;;;;;11.38;100.00;100973.16;5060295;28;20032;-46
2023/05/10 03:27:23;;;;;;;202.38;76.18;;;;;;;11.37;100.00;100971.50;5070430;28;20025;-45
2023/05/10 03:29:48;;;;;;;181.02;70.38;;;;;;;11.38;100.00;100977.72;5061690;28;20032;-48
2023/05/10 03:32:14;;;;;;;177.02;62.55;;;;;;;11.38;100.00;100972.31;5057712;28;20060;-47
2023/05/10 03:34:45;;;;;;;207.30;77.70;;;;;;;11.35;100.00;100970.81;5047674;28;20519;-46
2023/05/10 03:37:10;;;;;;;217.77;77.05;;;;;;;11.37;100.00;100986.78;5031184;28;20483;-47
2023/05/10 03:39:36;;;;;;;220.32;77.80;;;;;;;11.35;100.00;100978.09;5056886;28;20050;-44
2023/05/10 03:42:01;;;;;;;193.00;69.30;;;;;;;11.35;100.00;100970.81;5068236;28;20525;-48
2023/05/10 03:44:27;;;;;;;198.60;73.85;;;;;;;11.36;100.00;100969.78;5067703;28;20032;-45
2023/05/10 03:46:52;;;;;;;214.32;78.53;;;;;;;11.38;100.00;100975.00;5059163;28;20059;-48
2023/05/10 03:49:18;;;;;;;217.77;82.68;;;;;;;11.34;100.00;100977.22;5048352;28;20071;-44
2023/05/10 03:51:43;;;;;;;229.15;83.53;;;;;;;11.34;100.00;100971.84;5048863;28;20224;-46
2023/05/10 03:54:08;;;;;;;220.07;80.28;;;;;;;11.33;100.00;100985.50;5060755;28;20043;-47
2023/05/10 03:56:34;;;;;;;226.55;81.88;;;;;;;11.33;100.00;100990.91;5068674;28;20477;-47
2023/05/10 03:58:59;;;;;;;230.18;80.75;;;;;;;11.32;100.00;100990.06;5049512;28;20133;-46
2023/05/10 04:01:24;;;;;;;213.40;73.72;;;;;;;11.34;100.00;100987.16;5040483;28;20039;-47
2023/05/10 04:03:50;;;;;;;220.18;76.70;;;;;;;11.33;100.00;100990.91;5059022;28;20117;-45
2023/05/10 04:06:15;;;;;;;233.73;78.68;;;;;;;11.33;100.00;100996.28;5047172;28;20029;-43
2023/05/10 04:08:40;;;;;;;218.32;66.15;;;;;;;11.30;100.00;100997.50;5046769;28;20037;-43
2023/05/10 04:11:10;;;;;;;240.13;61.15;;;;;;;11.29;100.00;101001.19;5048535;28;20025;-43
2023/05/10 04:13:36;;;;;;;234.70;53.97;;;;;;;11.26;100.00;101000.72;5048503;28;20044;-48
2023/05/10 04:16:02;;;;;;;201.65;40.55;;;;;;;11.20;100.00;100992.34;5049048;28;20388;-48
2023/05/10 04:18:27;;;;;;;219.32;31.23;;;;;;;11.16;100.00;100996.44;5064460;28;20044;-45
2023/05/10 04:20:52;;;;;;;176.93;31.33;;;;;;;11.11;100.00;100993.44;5067979;28;20139;-48
2023/05/10 04:23:18;;;;;;;181.02;30.60;;;;;;;11.11;100.00;100992.59;5067919;28;20103;-43
2023/05/10 04:25:43;;;;;;;173.35;30.15;;;;;;;11.12;100.00;100995.13;5064432;28;20471;-47
2023/05/10 04:28:09;;;;;;;156.90;26.98;;;;;;;11.13;100.00;100996.78;5057236;28;20033;-45
2023/05/10 04:30:34;;;;;;;124.10;23.17;;;;;;;11.12;100.00;100999.69;5059650;28;20412;-45
2023/05/10 04:33:01;;;;;;;106.35;20.52;;;;;;;11.09;100.00;101008.13;5052572;28;20067;-49
2023/05/10 04:35:27;;;;;;;77.25;18.30;;;;;;;11.04;100.00;101005.97;5053302;28;20025;-46
2023/05/10 04:37:52;;;;;;;78.13;17.35;;;;;;;11.02;100.00;101005.31;5051498;28;20040;-46
2023/05/10 04:40:17;;;;;;;75.85;18.10;;;;;;;11.06;100.00;100998.53;5050143;28;20056;-44
2023/05/10 04:42:43;;;;;;;71.50;16.98;;;;;;;11.08;100.00;101007.25;5052251;28;20029;-46
2023/05/10 04:45:10;;;;;;;61.70;18.77;;;;;;;11.05;100.00;101007.63;5048862;28;20531;-46
2023/05/10 04:47:36;;;;;;;62.83;19.73;;;;;;;11.04;100.00;101007.81;5050807;28;20044;-45
2023/05/10 04:50:03;;;;;;;76.20;24.17;;;;;;;10.99;100.00;101013.75;5061815;28;20112;-46
2023/05/10 04:52:28;;;;;;;69.32;23.40;;;;;;;10.99;100.00;101002.97;5065865;28;20032;-48
2023/05/10 04:54:54;;;;;;;75.75;24.73;;;;;;;10.97;100.00;101008.53;5052576;28;20048;-44
2023/05/10 04:57:19;;;;;;;80.30;24.38;;;;;;;10.97;100.00;101013.09;5058927;28;20509;-45
2023/05/10 04:59:44;;;;;;;74.53;22.38;;;;;;;10.95;100.00;101013.28;5057392;28;20102;-47
2023/05/10 05:02:10;;;;;;;75.38;23.55;;;;;;;10.97;100.00;101013.09;5071668;28;20470;-47
2023/05/10 05:04:36;;;;;;;80.10;24.42;;;;;;;10.96;100.00;101019.50;5071890;28;20063;-45
2023/05/10 05:07:02;;;;;;;88.38;26.63;;;;;;;10.98;100.00;101020.16;5059603;28;20420;-44
2023/05/10 05:09:27;;;;;;;77.65;25.63;;;;;;;11.00;100.00;101028.88;5059265;28;20036;-46
2023/05/10 05:11:52;;;;;;;88.55;26.02;;;;;;;11.02;100.00;101026.84;5067532;28;20449;-50
2023/05/10 05:14:20;;;;;;;70.15;23.40;;;;;;;11.00;100.00;101028.88;5060521;28;20040;-49
2023/05/10 05:16:45;;;;;;;65.22;22.08;;;;;;;11.00;100.00;101028.88;5058989;28;20078;-50
2023/05/10 05:19:11;;;;;;;64.13;21.70;;;;;;;11.05;100.00;101026.47;5073388;28;20174;-53
2023/05/10 05:21:36;;;;;;;57.78;21.13;;;;;;;11.13;100.00;101023.72;5064993;28;20024;-46
2023/05/10 05:24:02;;;;;;;46.00;18.70;;;;;;;11.18;100.00;101033.97;5067874;28;20142;-47
2023/05/10 05:26:27;;;;;;;49.17;19.73;;;;;;;11.21;100.00;101034.41;5052839;28;20021;-49
2023/05/10 05:28:54;;;;;;;49.58;19.52;;;;;;;11.26;100.00;101041.97;5052713;28;20111;-46
2023/05/10 05:31:20;;;;;;;54.90;19.20;;;;;;;11.32;100.00;101041.25;5038360;28;20172;-48
2023/05/10 05:33:46;;;;;;;44.88;17.85;;;;;;;11.33;100.00;101042.09;5058036;28;20043;-47
2023/05/10 05:36:11;;;;;;;36.47;15.45;;;;;;;11.34;100.00;101038.38;5054372;28;20029;-47
2023/05/10 05:38:37;;;;;;;42.50;16.92;;;;;;;11.36;100.00;101050.63;5055355;28;20398;-46
2023/05/10 05:41:02;;;;;;;41.22;16.65;;;;;;;11.38;100.00;101047.78;5062294;28;20091;-45
2023/05/10 05:43:28;;;;;;;37.47;15.90;;;;;;;11.39;100.00;101057.53;5060869;28;20020;-48
2023/05/10 05:45:54;;;;;;;37.40;16.70;;;;;;;11.45;100.00;101050.56;5060011;28;20053;-51
2023/05/10 05:48:19;;;;;;;37.60;15.70;;;;;;;11.51;100.00;101056.06;5052784;28;20036;-47
2023/05/10 05:50:45;;;;;;;38.13;16.58;;;;;;;11.55;100.00;101051.97;5071391;28;20031;-46
2023/05/10 05:53:11;;;;;;;35.95;15.50;;;;;;;11.59;100.00;101050.59;5070346;28;20025;-46
2023/05/10 05:55:36;;;;;;;42.58;16.17;;;;;;;11.65;100.00;101052.56;5056120;28;20074;-47
2023/05/10 05:58:02;;;;;;;37.88;16.52;;;;;;;11.78;100.00;101059.19;5072249;28;20028;-48
2023/05/10 06:00:27;;;;;;;42.33;17.60;;;;;;;11.89;100.00;101066.84;5044149;28;20033;-49
2023/05/10 06:02:52;;;;;;;38.13;17.95;;;;;;;11.99;100.00;101062.00;5052218;28;20025;-44
2023/05/10 06:05:18;;;;;;;40.40;18.92;;;;;;;12.15;100.00;101071.78;5056090;28;20027;-46
2023/05/10 06:07:43;;;;;;;42.60;19.00;;;;;;;12.17;100.00;101069.72;5070101;28;20028;-45
2023/05/10 06:10:09;;;;;;;44.97;20.42;;;;;;;12.20;100.00;101069.34;5071121;28;20304;-52
2023/05/10 06:12:35;;;;;;;41.97;20.73;;;;;;;12.31;100.00;101070.75;5062353;28;20127;-48
2023/05/10 06:15:00;;;;;;;57.05;23.02;;;;;;;12.34;100.00;101073.06;5055189;28;20029;-45
2023/05/10 06:17:26;;;;;;;57.35;24.95;;;;;;;12.38;100.00;101071.66;5053220;28;20383;-47
2023/05/10 06:19:51;;;;;;;60.60;24.05;;;;;;;12.39;100.00;101067.94;5051691;28;20404;-47
2023/05/10 06:22:17;;;;;;;62.20;24.48;;;;;;;12.54;100.00;101064.38;5051709;28;20035;-47
2023/05/10 06:24:43;;;;;;;61.58;23.70;;;;;;;12.63;100.00;101065.94;5056962;28;20020;-49
2023/05/10 06:27:08;;;;;;;67.03;24.65;;;;;;;12.72;100.00;101062.09;5062035;28;20391;-48
2023/05/10 06:29:34;;;;;;;61.92;24.92;;;;;;;12.70;100.00;101061.44;5068736;28;20025;-47
2023/05/10 06:31:59;;;;;;;62.83;27.95;;;;;;;12.71;100.00;101055.84;5058466;28;20036;-48
2023/05/10 06:34:26;;;;;;;69.97;25.80;;;;;;;12.75;100.00;101056.31;5051782;28;20025;-50
2023/05/10 06:36:51;;;;;;;60.42;24.15;;;;;;;12.91;100.00;101049.84;5039118;28;20523;-45
2023/05/10 06:39:17;;;;;;;56.90;23.33;;;;;;;12.95;100.00;101045.72;5055403;28;20031;-46
2023/05/10 06:41:42;;;;;;;53.80;19.83;;;;;;;13.00;100.00;101053.25;5063760;28;20056;-46
2023/05/10 06:44:08;;;;;;;50.70;22.23;;;;;;;12.93;100.00;101047.78;5063591;28;20534;-46
2023/05/10 06:46:33;;;;;;;60.08;22.70;;;;;;;12.95;100.00;101045.72;5064675;28;20421;-47
2023/05/10 06:48:59;;;;;;;52.53;22.83;;;;;;;12.92;100.00;101044.22;5065398;28;20487;-48
2023/05/10 06:51:24;;;;;;;54.97;19.80;;;;;;;12.90;100.00;101043.59;5063656;28;20032;-45
2023/05/10 06:53:49;;;;;;;42.45;19.60;;;;;;;12.81;100.00;101042.03;5065720;28;20025;-46
2023/05/10 06:56:15;;;;;;;47.88;18.58;;;;;;;12.89;100.00;101041.91;5065519;28;20025;-47
2023/05/10 06:58:40;;;;;;;41.17;17.70;;;;;;;12.89;100.00;101038.38;5066439;28;20049;-47
2023/05/10 07:01:06;;;;;;;44.30;19.60;;;;;;;12.92;100.00;101035.28;5064254;28;20040;-49
2023/05/10 07:03:31;;;;;;;44.17;18.23;;;;;;;12.96;100.00;101036.59;5063348;28;20044;-48
2023/05/10 07:06:02;;;;;;;42.75;19.10;;;;;;;13.00;100.00;101048.66;5062289;28;20496;-49
2023/05/10 07:08:30;;;;;;;43.33;19.42;;;;;;;13.02;100.00;101045.78;5062894;28;20075;-48
2023/05/10 07:11:10;;;;;;;47.40;20.25;;;;;;;13.08;100.00;101053.94;5062235;28;20051;-47
2023/05/10 07:13:36;;;;;;;45.55;19.60;;;;;;;13.12;100.00;101062.53;5064672;28;20043;-47
2023/05/10 07:16:06;;;;;;;39.08;17.92;;;;;;;13.18;100.00;101057.16;5064227;28;20032;-46
2023/05/10 07:18:31;;;;;;;44.38;18.17;;;;;;;13.16;100.00;101063.78;5063289;28;20433;-48
2023/05/10 07:20:57;;;;;;;44.63;18.13;;;;;;;13.15;100.00;101062.13;5062583;28;20040;-48
2023/05/10 07:23:22;;;;;;;46.35;18.88;;;;;;;13.18;100.00;101059.03;5065216;28;20139;-46
2023/05/10 07:25:48;;;;;;;42.10;17.55;;;;;;;13.18;100.00;101059.03;5063261;28;20463;-48
2023/05/10 07:28:14;;;;;;;35.90;14.73;;;;;;;13.19;100.00;101063.41;5064879;28;20028;-46
2023/05/10 07:30:41;;;;;;;33.95;14.43;;;;;;;13.21;100.00;101068.63;5046359;28;20016;-44
2023/05/10 07:33:08;;;;;;;32.55;14.38;;;;;;;13.26;100.00;101064.31;5061482;28;20237;-47
2023/05/10 07:35:33;;;;;;;35.13;14.80;;;;;;;13.28;100.00;101067.69;5061919;28;20041;-46
2023/05/10 07:37:58;;;;;;;29.52;13.45;;;;;;;13.30;100.00;101068.34;5063735;28;20033;-46
2023/05/10 07:40:24;;;;;;;27.95;12.68;;;;;;;13.36;100.00;101064.00;5061664;28;20517;-48
2023/05/10 07:42:49;;;;;;;29.02;12.05;;;;;;;13.37;100.00;101063.78;5063128;28;20028;-47
2023/05/10 07:45:14;;;;;;;30.08;12.30;;;;;;;13.47;100.00;101065.34;5064966;28;20073;-48
2023/05/10 07:47:40;;;;;;;22.42;11.70;;;;;;;13.47;100.00;101060.78;5062635;28;20028;-46
2023/05/10 07:50:08;;;;;;;18.65;11.20;;;;;;;13.58;100.00;101064.81;5063154;28;20462;-47
2023/05/10 07:52:33;;;;;;;16.98;9.63;;;;;;;13.67;100.00;101066.34;5045693;28;20094;-44
2023/05/10 07:54:58;;;;;;;22.15;9.77;;;;;;;13.69;100.00;101056.16;5060115;28;20032;-45
2023/05/10 07:57:24;;;;;;;21.10;8.25;;;;;;;13.70;100.00;101065.94;5058980;28;20459;-45
2023/05/10 07:59:49;;;;;;;18.60;8.60;;;;;;;13.70;100.00;101054.28;5060289;28;20036;-48
2023/05/10 08:02:15;;;;;;;18.80;8.82;;;;;;;13.74;100.00;101067.19;5043743;28;20803;-48
2023/05/10 08:04:40;;;;;;;18.90;8.35;;;;;;;13.76;100.00;101054.31;5060616;28;20024;-44
2023/05/10 08:07:05;;;;;;;18.92;8.25;;;;;;;13.74;100.00;101067.19;5061131;28;20040;-46
2023/05/10 08:09:31;;;;;;;21.83;10.25;;;;;;;13.77;100.00;101065.97;5060808;28;20119;-46
2023/05/10 08:11:59;;;;;;;21.08;8.45;;;;;;;13.76;100.00;101065.16;5061237;28;20028;-47
2023/05/10 08:14:24;;;;;;;16.25;8.18;;;;;;;13.83;100.00;101062.50;5064058;28;20035;-48
2023/05/10 08:16:49;;;;;;;17.05;8.23;;;;;;;13.91;100.00;101066.91;5060121;28;20024;-46
2023/05/10 08:19:18;;;;;;;18.33;8.25;;;;;;;14.05;100.00;101064.06;5045882;28;20161;-46
2023/05/10 08:21:44;;;;;;;18.88;10.20;;;;;;;14.01;100.00;101076.34;5063106;28;20383;-48
2023/05/10 08:24:09;;;;;;;21.98;8.70;;;;;;;13.93;100.00;101072.94;5064846;28;20028;-46
2023/05/10 08:26:35;;;;;;;18.90;8.10;;;;;;;13.88;100.00;101080.84;5059200;28;20035;-45
2023/05/10 08:29:00;;;;;;;16.63;7.38;;;;;;;13.87;100.00;101081.88;5065697;28;20032;-48
2023/05/10 08:31:25;;;;;;;20.80;8.98;;;;;;;13.85;100.00;101084.78;5064883;28;20032;-47
2023/05/10 08:33:52;;;;;;;17.58;9.10;;;;;;;13.89;100.00;101098.75;5063839;28;20390;-47
2023/05/10 08:36:21;;;;;;;17.63;9.70;;;;;;;13.84;100.00;101096.63;5061747;28;20560;-47
2023/05/10 08:38:49;;;;;;;24.58;10.77;;;;;;;13.80;100.00;101096.19;5062905;28;20474;-46
2023/05/10 08:41:15;;;;;;;26.65;11.25;;;;;;;13.73;100.00;101092.59;5060588;28;20036;-48
2023/05/10 08:43:45;;;;;;;32.38;12.38;;;;;;;13.77;100.00;101093.03;5058268;28;20028;-49
2023/05/10 08:46:16;;;;;;;34.20;13.50;;;;;;;13.81;100.00;101092.44;5064741;28;20048;-48
2023/05/10 08:48:43;;;;;;;36.13;13.23;;;;;;;13.81;100.00;101095.16;5065003;28;20025;-45
2023/05/10 08:51:10;;;;;;;31.42;12.68;;;;;;;13.98;100.00;101102.94;5064363;28;20028;-50
2023/05/10 08:53:36;;;;;;;35.03;14.95;;;;;;;14.06;100.00;101108.25;5063042;28;20482;-46
2023/05/10 08:56:02;;;;;;;33.42;13.80;;;;;;;14.14;100.00;101110.78;5060697;28;20089;-46
2023/05/10 08:58:27;;;;;;;36.20;13.60;;;;;;;14.23;100.00;101116.88;5063857;28;20052;-46
2023/05/10 09:00:53;;;;;;;39.03;13.82;;;;;;;14.37;100.00;101109.66;5062358;28;20029;-46
2023/05/10 09:03:18;;;;;;;38.03;14.30;;;;;;;14.35;100.00;101120.69;5061670;28;20036;-45
2023/05/10 09:05:44;;;;;;;35.60;13.63;;;;;;;14.36;100.00;101114.22;5061611;28;20120;-47
2023/05/10 09:08:11;;;;;;;42.40;14.15;;;;;;;14.47;100.00;101116.38;5062174;28;20698;-48
2023/05/10 09:10:38;;;;;;;38.13;15.65;;;;;;;14.48;100.00;101125.31;5062995;28;20042;-46
2023/05/10 09:13:04;;;;;;;40.05;14.32;;;;;;;14.61;100.00;101111.91;5062874;28;20506;-50
2023/05/10 09:15:30;;;;;;;30.95;13.82;;;;;;;14.60;100.00;101121.03;5061963;28;20124;-46
2023/05/10 09:17:57;;;;;;;38.15;14.98;;;;;;;14.53;100.00;101114.75;5062039;28;20036;-50
2023/05/10 09:20:23;;;;;;;37.53;14.93;;;;;;;14.62;100.00;101124.41;5062411;28;20029;-47
2023/05/10 09:22:49;;;;;;;38.65;14.23;;;;;;;14.86;100.00;101127.63;5062084;28;20032;-50
2023/05/10 09:25:17;;;;;;;41.42;14.25;;;;;;;14.93;100.00;101136.59;5063751;28;20059;-47
2023/05/10 09:27:48;;;;;;;40.75;13.75;;;;;;;15.15;100.00;101134.56;5062597;28;20426;-46
2023/05/10 09:30:25;;;;;;;34.92;13.68;;;;;;;15.35;100.00;101119.19;5060025;28;20359;-46
2023/05/10 09:32:50;;;;;;;29.40;13.20;;;;;;;15.63;100.00;101120.03;5062291;28;20118;-46
2023/05/10 09:35:18;;;;;;;34.35;13.00;;;;;;;15.72;100.00;101122.38;5060889;28;20475;-48
2023/05/10 09:37:46;;;;;;;38.53;14.10;;;;;;;15.74;100.00;101117.53;5064117;28;20453;-44
2023/05/10 09:40:15;;;;;;;39.28;14.43;;;;;;;15.61;100.00;101112.09;5066699;28;20112;-46
2023/05/10 09:42:55;;;;;;;41.75;14.02;;;;;;;15.44;100.00;101108.13;5065440;28;20393;-46
2023/05/10 09:45:22;;;;;;;45.92;15.10;;;;;;;15.31;100.00;101117.09;5064391;28;20033;-45
2023/05/10 09:47:47;;;;;;;42.90;13.07;;;;;;;15.12;100.00;101129.56;5031895;28;20043;-46
2023/05/10 09:50:13;;;;;;;40.25;13.68;;;;;;;14.89;100.00;101128.03;5065547;28;20386;-47
2023/05/10 09:52:50;;;;;;;34.65;13.43;;;;;;;14.73;100.00;101130.28;5067100;28;20035;-48
2023/05/10 09:55:16;;;;;;;39.38;13.10;;;;;;;14.56;100.00;101141.47;5067538;28;20075;-46
2023/05/10 09:57:42;;;;;;;30.75;12.27;;;;;;;14.50;100.00;101143.03;5064482;28;20044;-42
2023/05/10 10:00:09;;;;;;;31.90;12.70;;;;;;;14.43;100.00;101149.50;5063839;28;20096;-46
2023/05/10 10:02:36;;;;;;;42.38;15.55;;;;;;;14.24;100.00;101159.13;5065167;28;20140;-46
2023/05/10 10:05:02;;;;;;;34.38;13.27;;;;;;;14.13;100.00;101157.81;5065441;28;20051;-45
2023/05/10 10:07:28;;;;;;;46.75;15.07;;;;;;;13.98;100.00;101159.78;5065103;28;20490;-49
2023/05/10 10:09:54;;;;;;;50.50;15.32;;;;;;;13.93;100.00;101162.25;5066010;28;20066;-45
2023/05/10 10:12:20;;;;;;;47.80;15.13;;;;;;;13.82;100.00;101159.06;5064619;28;20109;-46
2023/05/10 10:14:47;;;;;;;54.58;17.80;;;;;;;13.75;100.00;101166.28;5065129;28;20037;-46
2023/05/10 10:17:13;;;;;;;53.65;18.33;;;;;;;13.67;100.00;101173.69;5065440;28;20029;-48
2023/05/10 10:19:38;;;;;;;57.28;18.90;;;;;;;13.64;100.00;101179.47;5065684;28;20032;-49
2023/05/10 10:22:04;;;;;;;44.47;17.23;;;;;;;13.61;100.00;101191.50;5048870;28;20033;-49
2023/05/10 10:24:30;;;;;;;38.60;15.35;;;;;;;13.61;100.00;101183.41;5065696;28;20475;-46
2023/05/10 10:27:12;;;;;;;35.53;14.32;;;;;;;13.61;100.00;101181.56;5066817;28;20044;-46
2023/05/10 10:30:10;;;;;;;39.47;15.35;;;;;;;13.53;100.00;101183.53;5064139;28;20596;-45
2023/05/10 10:32:54;;;;;;;36.80;15.07;;;;;;;13.49;100.00;101187.66;5065755;28;20050;-48
2023/05/10 10:35:19;;;;;;;34.83;16.17;;;;;;;13.51;100.00;101196.44;5064259;28;20047;-47
2023/05/10 10:37:46;;;;;;;31.63;16.15;;;;;;;13.44;100.00;101196.34;5064616;28;20552;-45
2023/05/10 10:40:25;;;;;;;33.60;15.60;;;;;;;13.43;100.00;101201.94;5063162;28;20021;-51
2023/05/10 10:42:51;;;;;;;26.20;15.10;;;;;;;13.36;100.00;101205.41;5063704;28;20081;-46
2023/05/10 10:45:17;;;;;;;31.52;16.17;;;;;;;13.24;100.00;101203.38;5063302;28;20021;-46
2023/05/10 10:47:43;;;;;;;41.05;17.40;;;;;;;13.23;100.00;101204.41;5063456;28;20112;-50
2023/05/10 10:50:10;;;;;;;34.30;17.48;;;;;;;13.18;100.00;101196.84;5062261;28;20040;-45
2023/05/10 10:52:40;;;;;;;34.88;17.42;;;;;;;13.12;100.00;101208.44;5065603;28;20025;-46
2023/05/10 10:55:13;;;;;;;38.15;16.83;;;;;;;13.05;100.00;101202.13;5062968;28;20068;-50
2023/05/10 10:57:51;;;;;;;37.95;17.85;;;;;;;13.06;100.00;101209.19;5063278;28;20020;-46
2023/05/10 11:00:33;;;;;;;33.88;16.83;;;;;;;13.04;100.00;101213.97;5061009;28;20044;-46